sensor_id;sensor_type;location;lat;lon;timestamp;P1;durP1;ratioP1;P2;durP2;ratioP2
21138;SDS011;10727;43.600;1.444;2024-03-06T00:00:51;5.32;;;1.60;;
21138;SDS011;10727;43.600;1.444;2024-03-06T00:03:56;6.55;;;1.85;;
21138;SDS011;10727;43.600;1.444;2024-03-06T00:07:01;6.43;;;1.90;;
21138;SDS011;10727;43.600;1.444;2024-03-06T00:10:09;7.65;;;1.70;;
21138;SDS011;10727;43.600;1.444;2024-03-06T00:13:14;11.15;;;2.17;;
21138;SDS011;10727;43.600;1.444;2024-03-06T00:16:20;7.05;;;2.35;;
21138;SDS011;10727;43.600;1.444;2024-03-06T00:19:25;9.93;;;2.25;;
21138;SDS011;10727;43.600;1.444;2024-03-06T00:22:30;5.22;;;2.00;;
21138;SDS011;10727;43.600;1.444;2024-03-06T00:25:36;5.90;;;1.70;;
21138;SDS011;10727;43.600;1.444;2024-03-06T00:28:41;7.55;;;1.95;;
21138;SDS011;10727;43.600;1.444;2024-03-06T00:31:47;5.03;;;1.60;;
21138;SDS011;10727;43.600;1.444;2024-03-06T00:34:52;6.90;;;1.48;;
21138;SDS011;10727;43.600;1.444;2024-03-06T00:37:57;7.00;;;1.90;;
21138;SDS011;10727;43.600;1.444;2024-03-06T00:41:07;6.03;;;1.60;;
21138;SDS011;10727;43.600;1.444;2024-03-06T00:44:12;7.28;;;1.65;;
21138;SDS011;10727;43.600;1.444;2024-03-06T00:47:17;4.40;;;1.33;;
21138;SDS011;10727;43.600;1.444;2024-03-06T00:50:22;5.07;;;1.38;;
21138;SDS011;10727;43.600;1.444;2024-03-06T00:53:28;6.13;;;1.50;;
21138;SDS011;10727;43.600;1.444;2024-03-06T00:56:38;4.93;;;1.13;;
21138;SDS011;10727;43.600;1.444;2024-03-06T00:59:43;3.92;;;1.50;;
21138;SDS011;10727;43.600;1.444;2024-03-06T01:02:49;4.38;;;1.42;;
21138;SDS011;10727;43.600;1.444;2024-03-06T01:05:55;3.33;;;1.35;;
21138;SDS011;10727;43.600;1.444;2024-03-06T01:09:00;3.33;;;1.20;;
21138;SDS011;10727;43.600;1.444;2024-03-06T01:12:07;2.15;;;1.02;;
21138;SDS011;10727;43.600;1.444;2024-03-06T01:15:14;2.67;;;0.80;;
21138;SDS011;10727;43.600;1.444;2024-03-06T01:18:19;3.72;;;0.90;;
21138;SDS011;10727;43.600;1.444;2024-03-06T01:21:24;3.17;;;0.93;;
21138;SDS011;10727;43.600;1.444;2024-03-06T01:24:30;2.78;;;0.70;;
21138;SDS011;10727;43.600;1.444;2024-03-06T01:27:36;1.90;;;0.70;;
21138;SDS011;10727;43.600;1.444;2024-03-06T01:30:42;3.30;;;0.90;;
21138;SDS011;10727;43.600;1.444;2024-03-06T01:33:47;0.90;;;0.63;;
21138;SDS011;10727;43.600;1.444;2024-03-06T01:36:53;1.33;;;0.70;;
21138;SDS011;10727;43.600;1.444;2024-03-06T01:39:58;2.45;;;0.68;;
21138;SDS011;10727;43.600;1.444;2024-03-06T01:43:05;0.73;;;0.45;;
21138;SDS011;10727;43.600;1.444;2024-03-06T01:46:12;0.95;;;0.60;;
21138;SDS011;10727;43.600;1.444;2024-03-06T01:49:17;1.92;;;0.55;;
21138;SDS011;10727;43.600;1.444;2024-03-06T01:52:22;1.55;;;0.75;;
21138;SDS011;10727;43.600;1.444;2024-03-06T01:55:28;1.13;;;0.60;;
21138;SDS011;10727;43.600;1.444;2024-03-06T01:58:34;2.50;;;0.60;;
21138;SDS011;10727;43.600;1.444;2024-03-06T02:01:40;1.52;;;0.60;;
21138;SDS011;10727;43.600;1.444;2024-03-06T02:04:45;1.35;;;0.80;;
21138;SDS011;10727;43.600;1.444;2024-03-06T02:07:51;0.68;;;0.50;;
21138;SDS011;10727;43.600;1.444;2024-03-06T02:10:58;1.95;;;0.70;;
21138;SDS011;10727;43.600;1.444;2024-03-06T02:14:07;2.03;;;0.60;;
21138;SDS011;10727;43.600;1.444;2024-03-06T02:17:14;0.65;;;0.40;;
21138;SDS011;10727;43.600;1.444;2024-03-06T02:20:22;1.25;;;0.43;;
21138;SDS011;10727;43.600;1.444;2024-03-06T02:23:28;0.98;;;0.50;;
21138;SDS011;10727;43.600;1.444;2024-03-06T02:26:33;3.42;;;0.60;;
21138;SDS011;10727;43.600;1.444;2024-03-06T02:29:39;1.10;;;0.50;;
21138;SDS011;10727;43.600;1.444;2024-03-06T02:32:44;1.60;;;0.52;;
21138;SDS011;10727;43.600;1.444;2024-03-06T02:35:50;1.50;;;0.57;;
21138;SDS011;10727;43.600;1.444;2024-03-06T02:38:56;1.00;;;0.68;;
21138;SDS011;10727;43.600;1.444;2024-03-06T02:42:01;1.15;;;0.63;;
21138;SDS011;10727;43.600;1.444;2024-03-06T02:45:07;0.93;;;0.50;;
21138;SDS011;10727;43.600;1.444;2024-03-06T02:48:13;1.17;;;0.60;;
21138;SDS011;10727;43.600;1.444;2024-03-06T02:51:20;1.05;;;0.50;;
21138;SDS011;10727;43.600;1.444;2024-03-06T02:54:25;0.63;;;0.52;;
21138;SDS011;10727;43.600;1.444;2024-03-06T02:57:30;1.75;;;0.70;;
21138;SDS011;10727;43.600;1.444;2024-03-06T03:00:35;1.85;;;0.88;;
21138;SDS011;10727;43.600;1.444;2024-03-06T03:03:40;0.88;;;0.60;;
21138;SDS011;10727;43.600;1.444;2024-03-06T03:06:48;0.80;;;0.60;;
21138;SDS011;10727;43.600;1.444;2024-03-06T03:09:54;1.00;;;0.50;;
21138;SDS011;10727;43.600;1.444;2024-03-06T03:12:59;1.42;;;0.85;;
21138;SDS011;10727;43.600;1.444;2024-03-06T03:16:05;2.65;;;0.70;;
21138;SDS011;10727;43.600;1.444;2024-03-06T03:19:11;2.05;;;0.90;;
21138;SDS011;10727;43.600;1.444;2024-03-06T03:22:17;0.85;;;0.60;;
21138;SDS011;10727;43.600;1.444;2024-03-06T03:25:22;1.15;;;0.63;;
21138;SDS011;10727;43.600;1.444;2024-03-06T03:28:27;0.77;;;0.60;;
21138;SDS011;10727;43.600;1.444;2024-03-06T03:31:33;1.80;;;0.60;;
21138;SDS011;10727;43.600;1.444;2024-03-06T03:34:39;1.92;;;0.90;;
21138;SDS011;10727;43.600;1.444;2024-03-06T03:37:46;1.92;;;0.80;;
21138;SDS011;10727;43.600;1.444;2024-03-06T03:40:51;2.28;;;0.80;;
21138;SDS011;10727;43.600;1.444;2024-03-06T03:43:56;1.10;;;0.65;;
21138;SDS011;10727;43.600;1.444;2024-03-06T03:47:02;1.75;;;0.73;;
21138;SDS011;10727;43.600;1.444;2024-03-06T03:50:07;1.65;;;0.80;;
21138;SDS011;10727;43.600;1.444;2024-03-06T03:53:15;1.40;;;0.57;;
21138;SDS011;10727;43.600;1.444;2024-03-06T03:56:20;1.23;;;0.68;;
21138;SDS011;10727;43.600;1.444;2024-03-06T03:59:25;1.65;;;0.75;;
21138;SDS011;10727;43.600;1.444;2024-03-06T04:02:31;1.88;;;0.60;;
21138;SDS011;10727;43.600;1.444;2024-03-06T04:05:37;1.40;;;0.70;;
21138;SDS011;10727;43.600;1.444;2024-03-06T04:08:43;3.33;;;0.77;;
21138;SDS011;10727;43.600;1.444;2024-03-06T04:11:49;2.42;;;0.80;;
21138;SDS011;10727;43.600;1.444;2024-03-06T04:14:54;1.40;;;0.50;;
21138;SDS011;10727;43.600;1.444;2024-03-06T04:17:59;2.58;;;0.70;;
21138;SDS011;10727;43.600;1.444;2024-03-06T04:21:05;3.25;;;0.88;;
21138;SDS011;10727;43.600;1.444;2024-03-06T04:24:12;1.58;;;1.10;;
21138;SDS011;10727;43.600;1.444;2024-03-06T04:27:18;3.38;;;0.70;;
21138;SDS011;10727;43.600;1.444;2024-03-06T04:30:23;2.13;;;0.80;;
21138;SDS011;10727;43.600;1.444;2024-03-06T04:33:28;1.60;;;0.82;;
21138;SDS011;10727;43.600;1.444;2024-03-06T04:36:33;4.05;;;0.88;;
21138;SDS011;10727;43.600;1.444;2024-03-06T04:39:40;1.92;;;0.90;;
21138;SDS011;10727;43.600;1.444;2024-03-06T04:42:45;1.85;;;0.95;;
21138;SDS011;10727;43.600;1.444;2024-03-06T04:45:50;2.60;;;0.90;;
21138;SDS011;10727;43.600;1.444;2024-03-06T04:48:55;3.53;;;0.75;;
21138;SDS011;10727;43.600;1.444;2024-03-06T04:52:01;2.33;;;0.80;;
21138;SDS011;10727;43.600;1.444;2024-03-06T04:55:08;1.65;;;0.70;;
21138;SDS011;10727;43.600;1.444;2024-03-06T04:58:14;2.78;;;0.90;;
21138;SDS011;10727;43.600;1.444;2024-03-06T05:01:19;1.67;;;0.77;;
21138;SDS011;10727;43.600;1.444;2024-03-06T05:04:24;3.25;;;1.15;;
21138;SDS011;10727;43.600;1.444;2024-03-06T05:07:30;2.75;;;1.17;;
21138;SDS011;10727;43.600;1.444;2024-03-06T05:10:37;1.17;;;0.70;;
21138;SDS011;10727;43.600;1.444;2024-03-06T05:13:43;3.03;;;0.90;;
21138;SDS011;10727;43.600;1.444;2024-03-06T05:16:48;4.10;;;1.05;;
21138;SDS011;10727;43.600;1.444;2024-03-06T05:19:54;5.18;;;1.23;;
21138;SDS011;10727;43.600;1.444;2024-03-06T05:22:59;3.78;;;1.08;;
21138;SDS011;10727;43.600;1.444;2024-03-06T05:26:05;4.43;;;1.33;;
21138;SDS011;10727;43.600;1.444;2024-03-06T05:29:11;4.90;;;1.02;;
21138;SDS011;10727;43.600;1.444;2024-03-06T05:32:17;4.30;;;1.30;;
21138;SDS011;10727;43.600;1.444;2024-03-06T05:35:22;5.20;;;1.20;;
21138;SDS011;10727;43.600;1.444;2024-03-06T05:38:27;4.53;;;1.10;;
21138;SDS011;10727;43.600;1.444;2024-03-06T05:41:35;5.30;;;1.52;;
21138;SDS011;10727;43.600;1.444;2024-03-06T05:44:40;4.38;;;1.30;;
21138;SDS011;10727;43.600;1.444;2024-03-06T05:47:45;3.08;;;1.35;;
21138;SDS011;10727;43.600;1.444;2024-03-06T05:50:51;5.70;;;1.50;;
21138;SDS011;10727;43.600;1.444;2024-03-06T05:53:56;3.47;;;1.35;;
21138;SDS011;10727;43.600;1.444;2024-03-06T05:57:03;5.70;;;1.27;;
21138;SDS011;10727;43.600;1.444;2024-03-06T06:00:08;4.47;;;1.33;;
21138;SDS011;10727;43.600;1.444;2024-03-06T06:03:14;2.72;;;1.40;;
21138;SDS011;10727;43.600;1.444;2024-03-06T06:06:19;4.25;;;1.42;;
21138;SDS011;10727;43.600;1.444;2024-03-06T06:09:25;4.80;;;1.75;;
21138;SDS011;10727;43.600;1.444;2024-03-06T06:12:32;4.50;;;1.65;;
21138;SDS011;10727;43.600;1.444;2024-03-06T06:15:37;4.07;;;1.90;;
21138;SDS011;10727;43.600;1.444;2024-03-06T06:18:42;4.32;;;1.45;;
21138;SDS011;10727;43.600;1.444;2024-03-06T06:21:48;5.20;;;1.60;;
21138;SDS011;10727;43.600;1.444;2024-03-06T06:24:54;5.88;;;1.60;;
21138;SDS011;10727;43.600;1.444;2024-03-06T06:28:02;5.68;;;1.73;;
21138;SDS011;10727;43.600;1.444;2024-03-06T06:31:07;3.10;;;1.40;;
21138;SDS011;10727;43.600;1.444;2024-03-06T06:34:13;5.80;;;1.60;;
21138;SDS011;10727;43.600;1.444;2024-03-06T06:37:18;4.30;;;1.70;;
21138;SDS011;10727;43.600;1.444;2024-03-06T06:40:23;4.50;;;1.77;;
21138;SDS011;10727;43.600;1.444;2024-03-06T06:43:30;5.35;;;1.80;;
21138;SDS011;10727;43.600;1.444;2024-03-06T06:46:35;5.82;;;2.28;;
21138;SDS011;10727;43.600;1.444;2024-03-06T06:49:41;3.60;;;1.63;;
21138;SDS011;10727;43.600;1.444;2024-03-06T06:52:47;4.57;;;1.83;;
21138;SDS011;10727;43.600;1.444;2024-03-06T06:55:53;5.35;;;1.58;;
21138;SDS011;10727;43.600;1.444;2024-03-06T06:58:59;2.70;;;1.42;;
21138;SDS011;10727;43.600;1.444;2024-03-06T07:02:05;6.00;;;1.70;;
21138;SDS011;10727;43.600;1.444;2024-03-06T07:05:11;5.18;;;1.60;;
21138;SDS011;10727;43.600;1.444;2024-03-06T07:08:16;4.00;;;1.83;;
21138;SDS011;10727;43.600;1.444;2024-03-06T07:11:22;4.75;;;1.73;;
21138;SDS011;10727;43.600;1.444;2024-03-06T07:14:28;7.10;;;2.00;;
21138;SDS011;10727;43.600;1.444;2024-03-06T07:17:33;5.25;;;2.22;;
21138;SDS011;10727;43.600;1.444;2024-03-06T07:20:39;6.72;;;2.28;;
21138;SDS011;10727;43.600;1.444;2024-03-06T07:23:44;5.50;;;2.10;;
21138;SDS011;10727;43.600;1.444;2024-03-06T07:26:50;6.90;;;2.30;;
21138;SDS011;10727;43.600;1.444;2024-03-06T07:29:57;5.35;;;2.22;;
21138;SDS011;10727;43.600;1.444;2024-03-06T07:33:03;7.15;;;2.33;;
21138;SDS011;10727;43.600;1.444;2024-03-06T07:36:08;5.90;;;2.03;;
21138;SDS011;10727;43.600;1.444;2024-03-06T07:39:14;7.18;;;2.30;;
21138;SDS011;10727;43.600;1.444;2024-03-06T07:42:20;7.45;;;2.10;;
21138;SDS011;10727;43.600;1.444;2024-03-06T07:45:27;8.65;;;2.10;;
21138;SDS011;10727;43.600;1.444;2024-03-06T07:48:32;5.38;;;2.00;;
21138;SDS011;10727;43.600;1.444;2024-03-06T07:51:38;7.10;;;2.05;;
21138;SDS011;10727;43.600;1.444;2024-03-06T07:54:44;9.85;;;2.63;;
21138;SDS011;10727;43.600;1.444;2024-03-06T07:57:49;11.85;;;2.08;;
21138;SDS011;10727;43.600;1.444;2024-03-06T08:00:56;8.95;;;2.20;;
21138;SDS011;10727;43.600;1.444;2024-03-06T08:04:02;6.53;;;2.17;;
21138;SDS011;10727;43.600;1.444;2024-03-06T08:07:08;9.65;;;2.33;;
21138;SDS011;10727;43.600;1.444;2024-03-06T08:10:13;10.70;;;2.63;;
21138;SDS011;10727;43.600;1.444;2024-03-06T08:13:19;6.60;;;2.30;;
21138;SDS011;10727;43.600;1.444;2024-03-06T08:16:26;14.63;;;3.08;;
21138;SDS011;10727;43.600;1.444;2024-03-06T08:19:33;7.25;;;2.17;;
21138;SDS011;10727;43.600;1.444;2024-03-06T08:22:39;7.13;;;2.33;;
21138;SDS011;10727;43.600;1.444;2024-03-06T08:25:45;5.90;;;2.20;;
21138;SDS011;10727;43.600;1.444;2024-03-06T08:28:50;7.47;;;2.30;;
21138;SDS011;10727;43.600;1.444;2024-03-06T08:31:57;5.70;;;2.33;;
21138;SDS011;10727;43.600;1.444;2024-03-06T08:35:04;6.55;;;2.30;;
21138;SDS011;10727;43.600;1.444;2024-03-06T08:38:09;7.70;;;2.63;;
21138;SDS011;10727;43.600;1.444;2024-03-06T08:41:14;7.60;;;2.05;;
21138;SDS011;10727;43.600;1.444;2024-03-06T08:44:19;6.68;;;2.25;;
21138;SDS011;10727;43.600;1.444;2024-03-06T08:47:26;5.88;;;2.00;;
21138;SDS011;10727;43.600;1.444;2024-03-06T08:50:31;9.05;;;2.90;;
21138;SDS011;10727;43.600;1.444;2024-03-06T08:53:37;6.13;;;2.03;;
21138;SDS011;10727;43.600;1.444;2024-03-06T08:56:42;9.02;;;2.28;;
21138;SDS011;10727;43.600;1.444;2024-03-06T08:59:48;8.15;;;1.88;;
21138;SDS011;10727;43.600;1.444;2024-03-06T09:02:55;8.90;;;2.10;;
21138;SDS011;10727;43.600;1.444;2024-03-06T09:06:00;5.60;;;2.40;;
21138;SDS011;10727;43.600;1.444;2024-03-06T09:09:06;6.00;;;1.88;;
21138;SDS011;10727;43.600;1.444;2024-03-06T09:12:12;6.50;;;2.20;;
21138;SDS011;10727;43.600;1.444;2024-03-06T09:15:18;7.72;;;2.20;;
21138;SDS011;10727;43.600;1.444;2024-03-06T09:18:24;7.80;;;2.08;;
21138;SDS011;10727;43.600;1.444;2024-03-06T09:21:30;8.02;;;2.45;;
21138;SDS011;10727;43.600;1.444;2024-03-06T09:24:35;7.85;;;2.00;;
21138;SDS011;10727;43.600;1.444;2024-03-06T09:27:41;12.68;;;2.45;;
21138;SDS011;10727;43.600;1.444;2024-03-06T09:30:47;11.45;;;2.45;;
21138;SDS011;10727;43.600;1.444;2024-03-06T09:33:53;6.22;;;2.10;;
21138;SDS011;10727;43.600;1.444;2024-03-06T09:36:59;9.75;;;2.03;;
21138;SDS011;10727;43.600;1.444;2024-03-06T09:40:05;8.02;;;2.05;;
21138;SDS011;10727;43.600;1.444;2024-03-06T09:43:12;8.70;;;1.77;;
21138;SDS011;10727;43.600;1.444;2024-03-06T09:46:17;6.03;;;1.67;;
21138;SDS011;10727;43.600;1.444;2024-03-06T09:49:24;7.50;;;2.10;;
21138;SDS011;10727;43.600;1.444;2024-03-06T09:52:29;4.13;;;2.03;;
21138;SDS011;10727;43.600;1.444;2024-03-06T09:55:36;8.32;;;1.85;;
21138;SDS011;10727;43.600;1.444;2024-03-06T09:58:41;7.85;;;2.53;;
21138;SDS011;10727;43.600;1.444;2024-03-06T10:01:47;11.05;;;2.40;;
21138;SDS011;10727;43.600;1.444;2024-03-06T10:04:57;8.15;;;2.03;;
21138;SDS011;10727;43.600;1.444;2024-03-06T10:08:02;10.15;;;2.65;;
21138;SDS011;10727;43.600;1.444;2024-03-06T10:11:08;9.82;;;2.53;;
21138;SDS011;10727;43.600;1.444;2024-03-06T10:14:13;10.38;;;2.45;;
21138;SDS011;10727;43.600;1.444;2024-03-06T10:17:19;10.70;;;2.60;;
21138;SDS011;10727;43.600;1.444;2024-03-06T10:20:27;12.40;;;3.15;;
21138;SDS011;10727;43.600;1.444;2024-03-06T10:23:34;11.07;;;2.78;;
21138;SDS011;10727;43.600;1.444;2024-03-06T10:26:40;11.00;;;2.30;;
21138;SDS011;10727;43.600;1.444;2024-03-06T10:29:45;9.25;;;2.50;;
21138;SDS011;10727;43.600;1.444;2024-03-06T10:32:51;11.63;;;4.68;;
21138;SDS011;10727;43.600;1.444;2024-03-06T10:35:58;14.85;;;5.72;;
21138;SDS011;10727;43.600;1.444;2024-03-06T10:39:04;12.02;;;4.40;;
21138;SDS011;10727;43.600;1.444;2024-03-06T10:42:12;11.55;;;4.20;;
21138;SDS011;10727;43.600;1.444;2024-03-06T10:45:18;15.75;;;4.07;;
21138;SDS011;10727;43.600;1.444;2024-03-06T10:48:25;9.63;;;3.75;;
21138;SDS011;10727;43.600;1.444;2024-03-06T10:51:34;9.88;;;3.00;;
21138;SDS011;10727;43.600;1.444;2024-03-06T10:54:40;10.05;;;2.67;;
21138;SDS011;10727;43.600;1.444;2024-03-06T10:57:46;9.45;;;2.85;;
21138;SDS011;10727;43.600;1.444;2024-03-06T11:00:52;12.25;;;2.50;;
21138;SDS011;10727;43.600;1.444;2024-03-06T11:04:01;11.63;;;2.45;;
21138;SDS011;10727;43.600;1.444;2024-03-06T11:07:08;8.75;;;2.17;;
21138;SDS011;10727;43.600;1.444;2024-03-06T11:10:15;12.70;;;2.92;;
21138;SDS011;10727;43.600;1.444;2024-03-06T11:13:34;10.40;;;2.50;;
21138;SDS011;10727;43.600;1.444;2024-03-06T11:20:13;9.63;;;2.60;;
21138;SDS011;10727;43.600;1.444;2024-03-06T11:23:20;9.90;;;2.60;;
21138;SDS011;10727;43.600;1.444;2024-03-06T11:26:28;9.00;;;2.40;;
21138;SDS011;10727;43.600;1.444;2024-03-06T11:32:59;8.60;;;2.72;;
21138;SDS011;10727;43.600;1.444;2024-03-06T11:36:14;7.18;;;2.30;;
21138;SDS011;10727;43.600;1.444;2024-03-06T11:39:23;7.95;;;2.45;;
21138;SDS011;10727;43.600;1.444;2024-03-06T11:42:34;12.27;;;2.25;;
21138;SDS011;10727;43.600;1.444;2024-03-06T11:45:43;11.00;;;2.70;;
21138;SDS011;10727;43.600;1.444;2024-03-06T11:48:53;9.88;;;2.60;;
21138;SDS011;10727;43.600;1.444;2024-03-06T11:51:58;8.18;;;2.30;;
21138;SDS011;10727;43.600;1.444;2024-03-06T11:55:06;11.07;;;2.38;;
21138;SDS011;10727;43.600;1.444;2024-03-06T11:58:12;10.52;;;2.03;;
21138;SDS011;10727;43.600;1.444;2024-03-06T12:01:18;6.78;;;2.13;;
21138;SDS011;10727;43.600;1.444;2024-03-06T12:04:24;7.53;;;2.65;;
21138;SDS011;10727;43.600;1.444;2024-03-06T12:07:30;8.52;;;2.25;;
21138;SDS011;10727;43.600;1.444;2024-03-06T12:10:38;10.23;;;2.35;;
21138;SDS011;10727;43.600;1.444;2024-03-06T12:13:43;6.85;;;2.13;;
21138;SDS011;10727;43.600;1.444;2024-03-06T12:16:54;11.15;;;2.60;;
21138;SDS011;10727;43.600;1.444;2024-03-06T12:20:01;8.60;;;2.75;;
21138;SDS011;10727;43.600;1.444;2024-03-06T12:23:08;7.40;;;2.50;;
21138;SDS011;10727;43.600;1.444;2024-03-06T12:26:14;8.60;;;2.47;;
21138;SDS011;10727;43.600;1.444;2024-03-06T12:29:20;7.55;;;2.45;;
21138;SDS011;10727;43.600;1.444;2024-03-06T13:14:34;10.80;;;2.35;;
21138;SDS011;10727;43.600;1.444;2024-03-06T13:17:40;7.85;;;2.28;;
21138;SDS011;10727;43.600;1.444;2024-03-06T13:20:45;6.78;;;1.88;;
21138;SDS011;10727;43.600;1.444;2024-03-06T13:23:50;7.90;;;1.83;;
21138;SDS011;10727;43.600;1.444;2024-03-06T13:26:56;10.73;;;2.22;;
21138;SDS011;10727;43.600;1.444;2024-03-06T13:30:04;9.25;;;2.00;;
21138;SDS011;10727;43.600;1.444;2024-03-06T13:33:11;8.50;;;1.88;;
21138;SDS011;10727;43.600;1.444;2024-03-06T13:36:16;7.90;;;2.10;;
21138;SDS011;10727;43.600;1.444;2024-03-06T13:39:22;7.95;;;1.90;;
21138;SDS011;10727;43.600;1.444;2024-03-06T13:42:27;64.82;;;9.93;;
21138;SDS011;10727;43.600;1.444;2024-03-06T13:45:34;112.50;;;15.23;;
21138;SDS011;10727;43.600;1.444;2024-03-06T13:48:40;12.85;;;3.17;;
21138;SDS011;10727;43.600;1.444;2024-03-06T13:51:46;11.15;;;2.97;;
21138;SDS011;10727;43.600;1.444;2024-03-06T13:54:51;18.20;;;2.70;;
21138;SDS011;10727;43.600;1.444;2024-03-06T13:57:56;7.75;;;2.50;;
21138;SDS011;10727;43.600;1.444;2024-03-06T14:01:02;8.38;;;2.40;;
21138;SDS011;10727;43.600;1.444;2024-03-06T14:04:08;6.60;;;2.20;;
21138;SDS011;10727;43.600;1.444;2024-03-06T14:07:14;8.63;;;3.10;;
21138;SDS011;10727;43.600;1.444;2024-03-06T14:10:19;13.32;;;2.50;;
21138;SDS011;10727;43.600;1.444;2024-03-06T14:13:25;9.55;;;2.22;;
21138;SDS011;10727;43.600;1.444;2024-03-06T14:16:31;10.90;;;2.65;;
21138;SDS011;10727;43.600;1.444;2024-03-06T14:19:37;10.05;;;2.20;;
21138;SDS011;10727;43.600;1.444;2024-03-06T14:22:42;10.18;;;2.30;;
21138;SDS011;10727;43.600;1.444;2024-03-06T14:25:48;15.23;;;2.70;;
21138;SDS011;10727;43.600;1.444;2024-03-06T14:28:53;9.30;;;2.20;;
21138;SDS011;10727;43.600;1.444;2024-03-06T14:32:00;11.02;;;2.90;;
21138;SDS011;10727;43.600;1.444;2024-03-06T14:35:06;11.77;;;2.47;;
21138;SDS011;10727;43.600;1.444;2024-03-06T14:38:11;9.35;;;1.88;;
21138;SDS011;10727;43.600;1.444;2024-03-06T14:41:16;9.70;;;2.33;;
21138;SDS011;10727;43.600;1.444;2024-03-06T14:44:25;7.20;;;2.00;;
21138;SDS011;10727;43.600;1.444;2024-03-06T14:47:31;10.57;;;3.13;;
21138;SDS011;10727;43.600;1.444;2024-03-06T14:50:37;9.98;;;2.17;;
21138;SDS011;10727;43.600;1.444;2024-03-06T14:53:43;8.68;;;2.10;;
21138;SDS011;10727;43.600;1.444;2024-03-06T14:56:48;11.85;;;2.28;;
21138;SDS011;10727;43.600;1.444;2024-03-06T14:59:54;10.35;;;1.75;;
21138;SDS011;10727;43.600;1.444;2024-03-06T15:03:00;7.18;;;2.03;;
21138;SDS011;10727;43.600;1.444;2024-03-06T15:06:06;8.95;;;2.33;;
21138;SDS011;10727;43.600;1.444;2024-03-06T15:09:12;5.88;;;1.65;;
21138;SDS011;10727;43.600;1.444;2024-03-06T15:12:18;5.13;;;1.88;;
21138;SDS011;10727;43.600;1.444;2024-03-06T15:15:24;8.00;;;1.80;;
21138;SDS011;10727;43.600;1.444;2024-03-06T15:18:33;6.68;;;2.05;;
21138;SDS011;10727;43.600;1.444;2024-03-06T15:21:39;7.45;;;1.75;;
21138;SDS011;10727;43.600;1.444;2024-03-06T15:24:44;5.30;;;1.80;;
21138;SDS011;10727;43.600;1.444;2024-03-06T15:27:49;3.88;;;1.67;;
21138;SDS011;10727;43.600;1.444;2024-03-06T15:30:55;5.72;;;1.70;;
21138;SDS011;10727;43.600;1.444;2024-03-06T15:34:02;8.50;;;1.90;;
21138;SDS011;10727;43.600;1.444;2024-03-06T15:37:07;6.10;;;1.88;;
21138;SDS011;10727;43.600;1.444;2024-03-06T15:40:12;8.70;;;1.80;;
21138;SDS011;10727;43.600;1.444;2024-03-06T15:43:17;5.60;;;1.50;;
21138;SDS011;10727;43.600;1.444;2024-03-06T15:46:23;7.28;;;1.90;;
21138;SDS011;10727;43.600;1.444;2024-03-06T15:49:30;7.18;;;2.17;;
21138;SDS011;10727;43.600;1.444;2024-03-06T15:52:36;10.82;;;2.45;;
21138;SDS011;10727;43.600;1.444;2024-03-06T15:55:41;6.85;;;1.70;;
21138;SDS011;10727;43.600;1.444;2024-03-06T15:58:47;9.88;;;2.15;;
21138;SDS011;10727;43.600;1.444;2024-03-06T16:01:52;7.38;;;2.05;;
21138;SDS011;10727;43.600;1.444;2024-03-06T16:05:00;7.15;;;2.10;;
21138;SDS011;10727;43.600;1.444;2024-03-06T16:08:06;6.82;;;1.70;;
21138;SDS011;10727;43.600;1.444;2024-03-06T16:11:11;5.93;;;1.70;;
21138;SDS011;10727;43.600;1.444;2024-03-06T16:14:17;6.30;;;1.90;;
21138;SDS011;10727;43.600;1.444;2024-03-06T16:17:22;4.88;;;1.73;;
21138;SDS011;10727;43.600;1.444;2024-03-06T16:20:29;5.43;;;1.85;;
21138;SDS011;10727;43.600;1.444;2024-03-06T16:23:34;10.48;;;2.20;;
21138;SDS011;10727;43.600;1.444;2024-03-06T16:26:40;11.18;;;3.90;;
21138;SDS011;10727;43.600;1.444;2024-03-06T16:29:45;10.95;;;4.38;;
21138;SDS011;10727;43.600;1.444;2024-03-06T16:32:51;18.92;;;7.18;;
21138;SDS011;10727;43.600;1.444;2024-03-06T16:35:58;16.45;;;7.93;;
21138;SDS011;10727;43.600;1.444;2024-03-06T16:39:03;8.30;;;2.42;;
21138;SDS011;10727;43.600;1.444;2024-03-06T16:42:08;6.82;;;2.00;;
21138;SDS011;10727;43.600;1.444;2024-03-06T16:45:15;7.60;;;2.00;;
21138;SDS011;10727;43.600;1.444;2024-03-06T16:48:20;8.75;;;3.38;;
21138;SDS011;10727;43.600;1.444;2024-03-06T16:51:27;7.63;;;2.78;;
21138;SDS011;10727;43.600;1.444;2024-03-06T16:54:35;7.53;;;2.88;;
21138;SDS011;10727;43.600;1.444;2024-03-06T16:57:41;6.93;;;2.47;;
21138;SDS011;10727;43.600;1.444;2024-03-06T17:00:47;10.48;;;3.92;;
21138;SDS011;10727;43.600;1.444;2024-03-06T17:03:53;5.65;;;2.45;;
21138;SDS011;10727;43.600;1.444;2024-03-06T17:07:00;7.32;;;2.70;;
21138;SDS011;10727;43.600;1.444;2024-03-06T17:10:12;6.88;;;2.22;;
21138;SDS011;10727;43.600;1.444;2024-03-06T17:13:18;6.65;;;2.33;;
21138;SDS011;10727;43.600;1.444;2024-03-06T17:16:23;6.35;;;1.95;;
21138;SDS011;10727;43.600;1.444;2024-03-06T17:19:28;7.30;;;3.03;;
21138;SDS011;10727;43.600;1.444;2024-03-06T17:22:35;7.35;;;3.20;;
21138;SDS011;10727;43.600;1.444;2024-03-06T17:25:40;8.00;;;2.70;;
21138;SDS011;10727;43.600;1.444;2024-03-06T17:28:47;6.88;;;1.77;;
21138;SDS011;10727;43.600;1.444;2024-03-06T17:31:53;7.30;;;1.70;;
21138;SDS011;10727;43.600;1.444;2024-03-06T17:34:58;4.25;;;1.60;;
21138;SDS011;10727;43.600;1.444;2024-03-06T17:38:08;10.30;;;2.90;;
21138;SDS011;10727;43.600;1.444;2024-03-06T17:41:13;10.80;;;4.35;;
21138;SDS011;10727;43.600;1.444;2024-03-06T17:44:20;5.25;;;2.08;;
21138;SDS011;10727;43.600;1.444;2024-03-06T17:47:25;16.80;;;5.20;;
21138;SDS011;10727;43.600;1.444;2024-03-06T17:50:31;10.18;;;2.60;;
21138;SDS011;10727;43.600;1.444;2024-03-06T17:53:38;6.82;;;2.47;;
21138;SDS011;10727;43.600;1.444;2024-03-06T17:56:44;8.30;;;2.88;;
21138;SDS011;10727;43.600;1.444;2024-03-06T17:59:49;4.95;;;2.00;;
21138;SDS011;10727;43.600;1.444;2024-03-06T18:02:54;17.88;;;4.55;;
21138;SDS011;10727;43.600;1.444;2024-03-06T18:06:00;12.32;;;3.50;;
21138;SDS011;10727;43.600;1.444;2024-03-06T18:09:07;7.50;;;2.05;;
21138;SDS011;10727;43.600;1.444;2024-03-06T18:12:18;6.88;;;2.28;;
21138;SDS011;10727;43.600;1.444;2024-03-06T18:15:23;9.00;;;2.83;;
21138;SDS011;10727;43.600;1.444;2024-03-06T18:18:28;8.38;;;2.83;;
21138;SDS011;10727;43.600;1.444;2024-03-06T18:21:34;7.03;;;2.67;;
21138;SDS011;10727;43.600;1.444;2024-03-06T18:24:40;7.10;;;2.75;;
21138;SDS011;10727;43.600;1.444;2024-03-06T18:27:47;6.60;;;2.55;;
21138;SDS011;10727;43.600;1.444;2024-03-06T18:30:52;9.93;;;3.05;;
21138;SDS011;10727;43.600;1.444;2024-03-06T18:33:58;8.13;;;3.45;;
21138;SDS011;10727;43.600;1.444;2024-03-06T18:37:03;7.45;;;3.00;;
21138;SDS011;10727;43.600;1.444;2024-03-06T18:40:11;12.00;;;3.38;;
21138;SDS011;10727;43.600;1.444;2024-03-06T18:43:17;9.05;;;2.85;;
21138;SDS011;10727;43.600;1.444;2024-03-06T18:46:23;8.40;;;2.90;;
21138;SDS011;10727;43.600;1.444;2024-03-06T18:49:28;6.10;;;2.88;;
21138;SDS011;10727;43.600;1.444;2024-03-06T18:52:33;7.70;;;2.78;;
21138;SDS011;10727;43.600;1.444;2024-03-06T18:55:40;7.43;;;2.63;;
21138;SDS011;10727;43.600;1.444;2024-03-06T18:58:45;8.10;;;2.53;;
21138;SDS011;10727;43.600;1.444;2024-03-06T19:01:51;7.93;;;3.22;;
21138;SDS011;10727;43.600;1.444;2024-03-06T19:04:56;12.38;;;5.32;;
21138;SDS011;10727;43.600;1.444;2024-03-06T19:08:02;9.32;;;4.10;;
21138;SDS011;10727;43.600;1.444;2024-03-06T19:11:09;6.50;;;3.50;;
21138;SDS011;10727;43.600;1.444;2024-03-06T19:14:14;11.30;;;4.25;;
21138;SDS011;10727;43.600;1.444;2024-03-06T19:17:20;9.95;;;3.53;;
21138;SDS011;10727;43.600;1.444;2024-03-06T19:20:25;12.95;;;4.97;;
21138;SDS011;10727;43.600;1.444;2024-03-06T19:23:31;11.88;;;4.15;;
21138;SDS011;10727;43.600;1.444;2024-03-06T19:26:38;10.02;;;3.30;;